Latest Weather Observations for Melbourne (Olympic Park)

IDV60801

Issued at 9:32 pm EST Saturday 27 August 2016 (issued every 30 minutes, with the page automatically refreshed every 10 minutes)

About weather observations | Map of weather stations | Latest weather observations for VIC | Other Formats
Station Details ID: 086338 Name: MELBOURNE (OLYMPIC PARK) Lat: -37.83 Lon: 144.98 Height: 7.53 m
Data from the previous 72 hours. | See also: Recent months at Melbourne (Olympic Park)
Date/Time
EST
Temp
°C
App
Temp
°C
Dew
Point
°C
Rel
Hum
%
Delta-T
°C
Wind Press
QNH
hPa
Press
MSL
hPa
Rain since
9am
mm
Dir  Spd
km/h
Gust
km/h
Spd
kts
Gust
kts
27/09:30pm 11.8 7.4 4.5 61 3.3 N 17 24 9 13 1020.2 1020.2 0.0
27/09:00pm 12.0 7.5 4.2 59 3.5 N 17 24 9 13 1020.4 1020.4 0.0
27/08:30pm 12.3 8.5 4.0 57 3.7 N 13 19 7 10 1020.2 1020.2 0.0
27/08:00pm 12.2 8.5 4.4 59 3.5 N 13 19 7 10 1020.1 1020.1 0.0
27/07:30pm 12.4 8.6 4.1 57 3.7 N 13 19 7 10 1020.0 1020.0 0.0
27/07:00pm 12.8 9.0 4.0 55 4.0 N 13 19 7 10 1019.7 1019.7 0.0
27/06:30pm 13.1 9.3 4.0 54 4.1 N 13 22 7 12 1019.4 1019.4 0.0
27/06:00pm 13.4 8.8 3.8 52 4.3 N 17 24 9 13 1018.9 1018.9 0.0
27/05:30pm 13.7 8.5 3.5 50 4.6 N 20 33 11 18 1018.8 1018.8 0.0
27/05:00pm 13.8 8.2 3.6 50 4.6 NNW 22 37 12 20 1018.6 1018.6 0.0
27/04:30pm 14.5 8.9 3.6 48 4.9 NNW 22 41 12 22 1018.3 1018.3 0.0
27/04:00pm 14.6 8.5 2.8 45 5.3 NNW 24 39 13 21 1018.2 1018.2 0.0
27/03:30pm 15.1 9.9 3.3 45 5.4 NNW 20 32 11 17 1018.5 1018.5 0.0
27/03:00pm 15.3 10.1 3.8 46 5.3 N 20 32 11 17 1018.4 1018.4 0.0
27/02:30pm 15.1 9.9 2.6 43 5.6 NNW 19 33 10 18 1018.9 1018.9 0.0
27/02:00pm 14.9 9.1 2.4 43 5.5 NNW 22 46 12 25 1019.3 1019.3 0.0
27/01:30pm 15.5 10.4 3.0 43 5.7 NNW 19 30 10 16 1019.2 1019.2 0.0
27/01:00pm 14.9 10.2 3.1 45 5.3 NNW 17 28 9 15 1019.9 1019.9 0.0
27/12:30pm 14.1 9.0 3.0 47 5.0 NNW 19 33 10 18 1020.7 1020.7 0.0
27/12:00pm 13.7 9.0 2.9 48 4.8 NNW 17 26 9 14 1021.3 1021.3 0.0
27/11:30am 13.0 7.8 2.6 49 4.6 NW 19 30 10 16 1021.9 1021.9 0.0
27/11:00am 12.7 7.5 2.6 50 4.4 NNW 19 32 10 17 1022.0 1022.0 0.0
27/10:30am 12.4 7.5 2.3 50 4.4 NW 17 28 9 15 1022.1 1022.1 0.0
27/10:00am 12.0 6.8 2.5 52 4.1 NW 19 30 10 16 1022.1 1022.1 0.0
27/09:30am 12.4 7.6 2.6 51 4.3 NNW 17 26 9 14 1022.1 1022.1 0.0
27/09:00am 11.6 7.3 3.4 57 3.6 N 15 28 8 15 1022.3 1022.3 0.0
27/08:30am 10.4 6.9 3.4 62 3.1 N 11 19 6 10 1022.8 1022.8 0.0
27/08:00am 9.5 5.5 2.8 63 2.8 N 13 19 7 10 1022.6 1022.6 0.0
27/07:30am 9.6 6.0 2.7 62 2.9 N 11 17 6 9 1022.5 1022.5 0.0
27/07:00am 9.7 5.3 2.6 61 3.0 N 15 20 8 11 1022.3 1022.3 0.0
27/06:30am 9.7 6.0 2.6 61 3.0 N 11 17 6 9 1021.9 1021.9 0.0
27/06:00am 9.9 6.2 2.5 60 3.1 NNW 11 20 6 11 1021.5 1021.5 0.0
27/05:30am 10.5 6.8 2.6 58 3.4 NNW 11 20 6 11 1021.4 1021.4 0.0
27/05:00am 10.7 6.3 2.8 58 3.4 NNW 15 20 8 11 1021.1 1021.1 0.0
27/04:30am 10.9 6.8 2.5 56 3.6 NW 13 20 7 11 1021.1 1021.1 0.0
27/04:00am 10.9 8.0 2.5 56 3.6 NNW 7 13 4 7 1021.0 1021.0 0.0
27/03:30am 10.7 7.8 2.5 57 3.5 NW 7 13 4 7 1020.9 1020.9 0.0
27/03:00am 10.7 7.8 2.8 58 3.4 N 7 11 4 6 1021.0 1021.0 0.0
27/02:30am 10.8 7.5 2.6 57 3.5 N 9 13 5 7 1021.3 1021.3 0.0
27/02:00am 10.8 7.5 2.4 56 3.6 N 9 15 5 8 1021.5 1021.5 0.0
27/01:30am 10.8 6.8 2.9 58 3.4 N 13 19 7 10 1021.7 1021.7 0.0
27/01:00am 11.1 8.2 2.7 56 3.6 NNW 7 13 4 7 1021.9 1021.9 0.0
27/12:30am 11.1 8.2 2.7 56 3.6 NNW 7 11 4 6 1022.1 1022.1 0.0
27/12:00am 11.1 7.8 2.4 55 3.7 NNW 9 15 5 8 1022.1 1022.1 0.0
 
Date/Time
EST
Temp
°C
App
Temp
°C
Dew
Point
°C
Rel
Hum
%
Delta-T
°C
Wind Press
QNH
hPa
Press
MSL
hPa
Rain since
9am
mm
Dir  Spd
km/h
Gust
km/h
Spd
kts
Gust
kts
26/11:30pm 11.1 7.8 2.4 55 3.7 NNW 9 13 5 7 1022.2 1022.2 0.0
26/11:00pm 11.4 8.5 2.4 54 3.9 NNW 7 11 4 6 1022.2 1022.2 0.0
26/10:30pm 11.5 8.5 2.3 53 4.0 NNW 7 9 4 5 1022.1 1022.1 0.0
26/10:00pm 11.5 8.2 2.5 54 3.9 NNW 9 11 5 6 1022.0 1022.0 0.0
26/09:30pm 11.7 7.9 1.9 51 4.2 NNW 11 19 6 10 1021.9 1021.9 0.0
26/09:00pm 12.0 8.3 2.5 52 4.1 NW 11 17 6 9 1021.9 1021.9 0.0
26/08:30pm 12.1 8.4 2.3 51 4.2 NW 11 20 6 11 1021.8 1021.8 0.0
26/08:00pm 12.3 9.0 2.5 51 4.2 NW 9 17 5 9 1021.8 1021.8 0.0
26/07:30pm 12.5 8.4 2.1 49 4.5 NW 13 20 7 11 1021.7 1021.7 0.0
26/07:00pm 12.6 8.9 2.2 49 4.5 NW 11 19 6 10 1021.6 1021.6 0.0
26/06:30pm 12.7 9.0 2.3 49 4.5 NW 11 19 6 10 1021.3 1021.3 0.0
26/06:00pm 12.8 9.4 2.1 48 4.6 WNW 9 15 5 8 1021.2 1021.2 0.0
26/05:30pm 12.9 9.9 1.9 47 4.7 W 7 15 4 8 1020.8 1020.8 0.0
26/05:00pm 13.1 10.1 2.1 47 4.8 W 7 11 4 6 1020.6 1020.6 0.0
26/04:30pm 13.1 9.7 2.1 47 4.8 WSW 9 19 5 10 1020.6 1020.6 0.0
26/04:00pm 13.1 9.3 1.8 46 4.9 WNW 11 17 6 9 1020.4 1020.4 0.0
26/03:30pm 13.3 9.8 1.3 44 5.1 W 9 15 5 8 1020.4 1020.4 0.0
26/03:00pm 13.6 9.9 2.2 46 5.0 W 11 19 6 10 1020.5 1020.5 0.0
26/02:30pm 12.9 9.6 2.2 48 4.6 WNW 9 19 5 10 1020.6 1020.6 0.0
26/02:00pm 12.6 9.4 3.3 53 4.1 WSW 9 15 5 8 1020.9 1020.9 0.0
26/01:30pm 11.5 8.0 5.6 67 2.7 SSW 13 22 7 12 1021.0 1021.0 0.0
26/01:00pm 13.1 10.4 3.7 53 4.2 SW 7 17 4 9 1021.1 1021.1 0.0
26/12:30pm 12.6 9.4 3.0 52 4.2 SW 9 17 5 9 1021.5 1021.5 0.0
26/12:00pm 12.6 9.1 3.3 53 4.1 SW 11 20 6 11 1021.8 1021.8 0.0
26/11:30am 12.2 9.2 4.2 58 3.6 SSW 9 15 5 8 1022.0 1022.0 0.0
26/11:00am 12.1 8.6 3.3 55 3.9 WSW 11 20 6 11 1022.1 1022.1 0.0
26/10:30am 11.9 8.9 4.2 59 3.5 W 9 19 5 10 1022.1 1022.1 0.0
26/10:00am 11.2 8.4 5.3 67 2.7 NW 9 17 5 9 1022.0 1022.0 0.0
26/09:30am 10.9 7.9 6.1 72 2.2 NW 11 20 6 11 1022.2 1022.2 0.0
26/09:00am 9.9 7.2 5.5 74 2.0 NW 9 17 5 9 1022.1 1022.1 0.6
26/08:30am 9.5 7.2 5.7 77 1.7 W 7 15 4 8 1022.0 1022.0 0.6
26/08:00am 9.1 6.8 5.5 78 1.6 W 7 15 4 8 1021.8 1021.8 0.6
26/07:30am 8.6 6.2 5.2 79 1.5 WNW 7 11 4 6 1021.8 1021.8 0.6
26/07:00am 8.2 6.3 5.1 81 1.4 WNW 4 11 2 6 1021.5 1021.5 0.6
26/06:30am 8.0 5.8 5.3 83 1.2 NW 6 9 3 5 1021.1 1021.1 0.6
26/06:00am 8.1 6.3 5.4 83 1.2 NW 4 13 2 7 1020.9 1020.9 0.6
26/05:30am 7.7 5.5 5.2 84 1.1 NW 6 9 3 5 1020.5 1020.5 0.6
26/05:00am 7.8 5.6 5.1 83 1.2 WSW 6 11 3 6 1020.2 1020.2 0.6
26/04:30am 8.2 5.8 5.3 82 1.3 WSW 7 13 4 7 1020.0 1020.0 0.6
26/04:00am 8.1 6.2 5.0 81 1.4 WSW 4 11 2 6 1019.7 1019.7 0.6
26/03:30am 8.0 5.7 4.9 81 1.4 WNW 6 13 3 7 1019.7 1019.7 0.6
26/03:00am 7.5 5.6 4.8 83 1.2 W 4 9 2 5 1019.7 1019.7 0.6
26/02:30am 7.2 4.6 4.3 82 1.3 SW 7 9 4 5 1019.7 1019.7 0.6
26/02:00am 7.3 5.0 4.6 83 1.2 W 6 11 3 6 1019.8 1019.8 0.6
26/01:30am 8.0 5.8 5.1 82 1.3 W 6 7 3 4 1019.9 1019.9 0.6
26/01:00am 8.6 6.3 5.0 78 1.6 W 6 11 3 6 1019.8 1019.8 0.6
26/12:30am 8.6 6.2 5.2 79 1.5 W 7 17 4 9 1019.7 1019.7 0.6
26/12:00am 8.8 6.5 5.7 81 1.4 W 7 13 4 7 1019.6 1019.6 0.6
 
Date/Time
EST
Temp
°C
App
Temp
°C
Dew
Point
°C
Rel
Hum
%
Delta-T
°C
Wind Press
QNH
hPa
Press
MSL
hPa
Rain since
9am
mm
Dir  Spd
km/h
Gust
km/h
Spd
kts
Gust
kts
25/11:30pm 9.1 6.2 4.9 75 1.9 WSW 9 13 5 7 1019.6 1019.6 0.6
25/11:00pm 9.4 6.7 5.6 77 1.7 W 9 15 5 8 1019.4 1019.4 0.6
25/10:30pm 9.8 7.6 6.2 78 1.7 W 7 11 4 6 1019.3 1019.3 0.6
25/10:00pm 10.4 8.3 5.8 73 2.1 W 6 13 3 7 1019.3 1019.3 0.6
25/09:30pm 10.6 8.4 6.2 74 2.0 WSW 7 11 4 6 1019.1 1019.1 0.6
25/09:00pm 10.9 8.7 6.3 73 2.1 SW 7 17 4 9 1019.0 1019.0 0.6
25/08:30pm 10.9 8.0 4.4 64 2.9 S 9 17 5 9 1018.8 1018.8 0.6
25/08:00pm 10.5 7.2 6.3 75 2.0 SSW 13 24 7 13 1018.7 1018.7 0.6
25/07:30pm 10.6 8.1 6.6 76 1.9 S 9 17 5 9 1018.3 1018.3 0.6
25/07:00pm 10.8 8.3 6.6 75 2.0 SSW 9 13 5 7 1017.9 1017.9 0.6
25/06:30pm 11.1 9.0 6.5 73 2.2 SSW 7 17 4 9 1017.4 1017.4 0.6
25/06:00pm 10.9 8.7 6.3 73 2.1 SSW 7 11 4 6 1017.0 1017.0 0.6
25/05:30pm 11.5 9.0 6.4 71 2.4 SSW 9 15 5 8 1016.7 1016.7 0.6
25/05:00pm 11.5 7.3 5.6 67 2.7 SSW 17 26 9 14 1016.4 1016.4 0.6
25/04:30pm 12.1 8.7 5.7 65 3.0 S 13 22 7 12 1016.1 1016.1 0.6
25/04:00pm 12.2 7.9 5.1 62 3.3 SSW 17 28 9 15 1016.0 1016.0 0.6
25/03:30pm 12.3 8.3 5.0 61 3.4 S 15 28 8 15 1015.9 1015.9 0.6
25/03:00pm 12.2 8.7 5.4 63 3.1 SSW 13 26 7 14 1015.7 1015.7 0.6
25/02:30pm 12.1 8.4 6.2 67 2.8 S 15 24 8 13 1015.5 1015.5 0.6
25/02:00pm 13.0 9.0 6.6 65 3.1 SSW 17 32 9 17 1015.3 1015.3 0.6
25/01:30pm 12.4 8.1 5.3 62 3.3 SSW 17 33 9 18 1015.2 1015.2 0.6
25/01:00pm 12.0 7.3 5.2 63 3.1 SSW 19 30 10 16 1015.2 1015.2 0.6
25/12:30pm 11.8 8.3 5.4 65 3.0 SW 13 24 7 13 1015.2 1015.2 0.6
25/12:00pm 9.9 7.3 6.1 77 1.8 SSW 9 13 5 7 1015.4 1015.4 0.6
25/11:30am 10.5 6.2 5.1 69 2.5 SW 17 33 9 18 1015.7 1015.7 0.0
25/11:00am 10.9 7.4 5.4 69 2.5 SW 13 22 7 12 1015.6 1015.6 0.0
25/10:30am 10.6 7.2 6.0 73 2.1 SSW 13 20 7 11 1015.4 1015.4 0.0
25/10:00am 10.5 7.6 6.3 75 2.0 WSW 11 19 6 10 1015.1 1015.1 0.0
25/09:30am 9.0 6.4 6.3 83 1.2 WSW 9 17 5 9 1015.1 1015.1 0.0
25/09:00am 8.1 4.7 5.7 85 1.1 W 13 22 7 12 1015.2 1015.2 1.2
25/08:30am 8.2 5.6 6.3 88 0.9 W 9 19 5 10 1015.0 1015.0 1.2
25/08:00am 7.6 5.0 5.9 89 0.8 W 9 17 5 9 1014.7 1014.7 1.2
25/07:30am 7.2 5.0 6.0 92 0.5 WNW 7 15 4 8 1014.2 1014.2 1.2
25/07:16am 7.3 5.3 6.1 92 0.5 W 6 13 3 7 1015.2 - 1.2
25/07:00am 7.4 5.2 6.0 91 0.6 WSW 7 11 4 6 1014.2 1014.2 1.2
25/06:59am 7.4 5.2 6.0 91 0.6 WSW 7 11 4 6 1015.1 - 1.2
25/06:30am 7.2 4.9 5.8 91 0.6 W 7 15 4 8 1013.8 1013.8 0.6
25/06:00am 7.4 4.4 6.2 92 0.5 W 11 20 6 11 1013.6 1013.6 0.4
25/05:49am 7.5 4.9 6.3 92 0.5 W 9 19 5 10 1014.5 - 0.4
25/05:36am 7.6 5.4 6.2 91 0.6 W 7 19 4 10 1014.4 - 0.4
25/05:30am 7.7 5.4 5.8 88 0.9 W 7 19 4 10 1013.5 1013.5 0.2
25/05:00am 7.4 5.2 5.2 86 1.0 WSW 6 15 3 8 1013.2 1013.2 0.0
25/04:30am 7.7 4.9 5.0 83 1.2 WSW 9 15 5 8 1012.9 1012.9 0.0
25/04:00am 7.9 5.1 5.0 82 1.3 WSW 9 17 5 9 1012.9 1012.9 0.0
25/03:30am 7.9 5.6 5.0 82 1.3 WSW 6 13 3 7 1012.9 1012.9 0.0
25/03:00am 7.9 5.0 4.8 81 1.4 W 9 17 5 9 1013.0 1013.0 0.0
25/02:30am 8.2 5.3 4.8 79 1.5 W 9 13 5 7 1013.2 1013.2 0.0
25/02:00am 8.2 5.9 5.0 80 1.4 WSW 6 9 3 5 1013.3 1013.3 0.0
25/01:30am 8.0 5.7 4.8 80 1.4 WSW 6 13 3 7 1013.5 1013.5 0.0
25/01:00am 8.1 5.8 4.9 80 1.4 W 6 11 3 6 1013.6 1013.6 0.0
25/12:30am 8.3 5.5 5.1 80 1.4 W 9 15 5 8 1013.6 1013.6 0.0
25/12:00am 8.5 6.1 5.3 80 1.4 WNW 7 13 4 7 1013.7 1013.7 0.0
 
Date/Time
EST
Temp
°C
App
Temp
°C
Dew
Point
°C
Rel
Hum
%
Delta-T
°C
Wind Press
QNH
hPa
Press
MSL
hPa
Rain since
9am
mm
Dir  Spd
km/h
Gust
km/h
Spd
kts
Gust
kts
24/11:30pm 8.8 6.6 6.1 83 1.2 W 7 11 4 6 1013.7 1013.7 0.0
24/11:00pm 9.2 7.3 6.6 84 1.2 WSW 6 13 3 7 1013.8 1013.8 0.0
24/10:30pm 8.9 8.0 6.2 83 1.2 CALM 0 0 0 0 1014.1 1014.1 0.0
24/10:00pm 9.1 7.3 5.5 78 1.6 SSE 4 7 2 4 1014.3 1014.3 0.0

Other Formats:

Comma delimited format used in spreadsheet applications
http://www.bom.gov.au/fwo/IDV60801/IDV60801.95936.axf

JavaScript Object Notation format (JSON) in row-major order
http://www.bom.gov.au/fwo/IDV60801/IDV60801.95936.json